Stacy Shelby — WDC8962 — position and weather

sailwx.info

Track history (hours):
 
Tides and Currents Weather Stations Pressure Air Temp Water Temp Dewpoint Dewpoint Depression Visibility Wind Speed Wind Dir Waves Ship Positions

Stacy Shelby

Owner: Destin Trading Corporation, harahan, LA. More information available from US FCC via Universal Licensing System and Coast Guard Vessel Documentation Center.

Last reported at 2018-Jan-23 18:45 UTC. Time now 2018-Jan-24 01:51 UTC.
Position N 29°49' W 092°03'.

Length 23 m; draft 3.2 m.

Type: Towing. MMSI: 367095660.

Date/timePositionNaut miles runAvg speedWind from/ knotsBaromVisibWave heightAir tempDewpointWater temp
2018-Jan-23 18:45N 29°49' W 092°03'2 4.1
2018-Jan-23 18:18N 29°48' W 092°05'1 2.3
2018-Jan-23 17:57N 29°48' W 092°06'2 4.4
2018-Jan-23 17:30N 29°47' W 092°08'2 4.5
2018-Jan-23 17:00N 29°47' W 092°11'2 3.5
2018-Jan-23 16:29N 29°47' W 092°12'1 2.8
2018-Jan-23 16:00N 29°48' W 092°14'2 4.6
2018-Jan-23 15:30N 29°49' W 092°16'2 4.3
2018-Jan-23 15:00N 29°50' W 092°18'41 3.8
2018-Jan-23 04:18N 29°56' W 093°05'1 4.3
2018-Jan-23 04:00N 29°56' W 093°06'2 4.1
2018-Jan-23 03:30N 29°56' W 093°09'1 3.0
2018-Jan-23 03:00N 29°57' W 093°10'2 4.2
2018-Jan-23 02:30N 29°58' W 093°12'2 3.6
2018-Jan-23 02:00N 29°60' W 093°13'2 4.1
2018-Jan-23 01:30N 30°02' W 093°14'1 2.7
2018-Jan-23 01:00N 30°02' W 093°15'2 3.9
2018-Jan-23 00:30N 30°04' W 093°16'2 3.5
2018-Jan-23 00:00N 30°05' W 093°18'1 1.9
2018-Jan-22 23:30N 30°06' W 093°18'1 2.6
2018-Jan-22 23:00N 30°05' W 093°20'2 4.0
2018-Jan-22 22:30N 30°04' W 093°21'2 3.6
2018-Jan-22 22:00N 30°04' W 093°23'2 4.3
2018-Jan-22 21:30N 30°04' W 093°26'3 5.1
2018-Jan-22 21:00N 30°04' W 093°29'3 5.1
2018-Jan-22 20:30N 30°04' W 093°31'3 5.0
2018-Jan-22 20:00N 30°04' W 093°34'3 5.1
2018-Jan-22 19:30N 30°03' W 093°37'73 1.7
2018-Jan-20 23:24N 29°32' W 094°54'2 4.8
2018-Jan-20 23:00N 29°33' W 094°55'2 4.1
2018-Jan-20 22:29N 29°35' W 094°56'2 4.5
2018-Jan-20 22:00N 29°37' W 094°57'3 6.3
2018-Jan-20 21:30N 29°40' W 094°59'  
Track history (hours):
 
Tides and Currents Weather Stations Pressure Air Temp Water Temp Dewpoint Dewpoint Depression Visibility Wind Speed Wind Dir Waves Ship Positions

Stacy Shelby

Owner: Destin Trading Corporation, harahan, LA. More information available from US FCC via Universal Licensing System and Coast Guard Vessel Documentation Center.

Last reported at 2018-Jan-23 18:45 UTC. Time now 2018-Jan-24 01:51 UTC.
Position N 29°49' W 092°03'.

Length 23 m; draft 3.2 m.

Type: Towing. MMSI: 367095660.

Date/timePositionNaut miles runAvg speedWind from/ knotsBaromVisibWave heightAir tempDewpointWater temp
2018-Jan-23 18:45N 29°49' W 092°03'2 4.1
2018-Jan-23 18:18N 29°48' W 092°05'1 2.3
2018-Jan-23 17:57N 29°48' W 092°06'2 4.4
2018-Jan-23 17:30N 29°47' W 092°08'2 4.5
2018-Jan-23 17:00N 29°47' W 092°11'2 3.5
2018-Jan-23 16:29N 29°47' W 092°12'1 2.8
2018-Jan-23 16:00N 29°48' W 092°14'2 4.6
2018-Jan-23 15:30N 29°49' W 092°16'2 4.3
2018-Jan-23 15:00N 29°50' W 092°18'41 3.8
2018-Jan-23 04:18N 29°56' W 093°05'1 4.3
2018-Jan-23 04:00N 29°56' W 093°06'2 4.1
2018-Jan-23 03:30N 29°56' W 093°09'1 3.0
2018-Jan-23 03:00N 29°57' W 093°10'2 4.2
2018-Jan-23 02:30N 29°58' W 093°12'2 3.6
2018-Jan-23 02:00N 29°60' W 093°13'2 4.1
2018-Jan-23 01:30N 30°02' W 093°14'1 2.7
2018-Jan-23 01:00N 30°02' W 093°15'2 3.9
2018-Jan-23 00:30N 30°04' W 093°16'2 3.5
2018-Jan-23 00:00N 30°05' W 093°18'1 1.9
2018-Jan-22 23:30N 30°06' W 093°18'1 2.6
2018-Jan-22 23:00N 30°05' W 093°20'2 4.0
2018-Jan-22 22:30N 30°04' W 093°21'2 3.6
2018-Jan-22 22:00N 30°04' W 093°23'2 4.3
2018-Jan-22 21:30N 30°04' W 093°26'3 5.1
2018-Jan-22 21:00N 30°04' W 093°29'3 5.1
2018-Jan-22 20:30N 30°04' W 093°31'3 5.0
2018-Jan-22 20:00N 30°04' W 093°34'3 5.1
2018-Jan-22 19:30N 30°03' W 093°37'73 1.7
2018-Jan-20 23:24N 29°32' W 094°54'2 4.8
2018-Jan-20 23:00N 29°33' W 094°55'2 4.1
2018-Jan-20 22:29N 29°35' W 094°56'2 4.5
2018-Jan-20 22:00N 29°37' W 094°57'3 6.3
2018-Jan-20 21:30N 29°40' W 094°59'  

Dump ship's entire track history